Time;durP1;ratioP1;P1;durP2;ratioP2;P2;SDS_P1;SDS_P2;PMS_P1;PMS_P2;Temp;Humidity;BMP_temperature;BMP_pressure;BME280_temperature;BME280_humidity;BME280_pressure;Samples;Min_cycle;Max_cycle;Signal;HPM_P1;HPM_P2
2023/02/06 00:02:26;;;;;;;37.70;6.00;;;1.90;99.90;;;;;;5030199;28;20205;-65
2023/02/06 00:05:14;;;;;;;44.87;6.27;;;1.90;99.90;;;;;;5029974;28;20697;-65
2023/02/06 00:08:03;;;;;;;36.27;6.23;;;1.80;99.90;;;;;;5023072;28;20294;-65
2023/02/06 00:10:52;;;;;;;36.47;6.73;;;1.80;99.90;;;;;;5025235;28;20225;-65
2023/02/06 00:13:41;;;;;;;46.90;6.20;;;1.70;99.90;;;;;;5027989;28;20201;-65
2023/02/06 00:16:32;;;;;;;45.03;6.73;;;1.70;99.90;;;;;;5039841;28;20334;-65
2023/02/06 00:19:20;;;;;;;45.57;6.57;;;1.60;99.90;;;;;;5021824;28;20255;-65
2023/02/06 00:22:09;;;;;;;33.97;6.73;;;1.60;99.90;;;;;;5028133;28;20228;-66
2023/02/06 00:24:57;;;;;;;35.60;6.80;;;1.60;99.90;;;;;;5030983;28;20221;-65
2023/02/06 00:27:46;;;;;;;50.07;7.77;;;1.60;99.90;;;;;;5033779;28;20609;-66
2023/02/06 00:30:35;;;;;;;47.10;6.53;;;1.60;99.90;;;;;;5024223;28;20586;-65
2023/02/06 00:33:24;;;;;;;50.23;7.70;;;1.60;99.90;;;;;;5030552;28;20573;-65
2023/02/06 00:36:12;;;;;;;61.67;7.50;;;1.60;99.90;;;;;;5019549;28;20281;-65
2023/02/06 00:39:01;;;;;;;47.03;6.37;;;1.60;99.90;;;;;;5023890;28;20276;-65
2023/02/06 00:41:49;;;;;;;46.33;7.33;;;1.60;99.90;;;;;;5035283;28;20266;-65
2023/02/06 00:44:38;;;;;;;46.73;6.40;;;1.60;99.90;;;;;;5035535;28;20197;-65
2023/02/06 00:47:27;;;;;;;37.87;6.63;;;1.60;99.90;;;;;;5040528;28;20252;-65
2023/02/06 00:50:16;;;;;;;39.57;6.30;;;1.70;99.90;;;;;;5033109;28;20463;-65
2023/02/06 00:53:04;;;;;;;57.07;6.73;;;1.70;99.90;;;;;;5036300;28;20220;-65
2023/02/06 00:55:53;;;;;;;35.97;6.30;;;1.70;99.90;;;;;;5028949;28;20229;-65
2023/02/06 00:58:41;;;;;;;32.33;5.67;;;1.70;99.90;;;;;;5030191;28;20233;-65
2023/02/06 01:01:29;;;;;;;46.60;6.00;;;1.80;99.90;;;;;;5031355;28;20827;-65
2023/02/06 01:03:59;;;;;;;43.07;5.67;;;1.80;99.90;;;;;;5032710;28;20209;-65
2023/02/06 01:06:27;;;;;;;51.80;5.87;;;1.80;99.90;;;;;;5035107;28;20287;-65
2023/02/06 01:08:56;;;;;;;34.77;6.10;;;1.80;99.90;;;;;;5033976;28;20768;-66
2023/02/06 01:11:26;;;;;;;46.40;6.57;;;1.80;99.90;;;;;;5031542;28;20236;-65
2023/02/06 01:13:54;;;;;;;41.90;5.50;;;1.90;99.90;;;;;;5038079;28;20197;-66
2023/02/06 01:16:24;;;;;;;34.50;5.77;;;1.90;99.90;;;;;;5032814;28;20205;-65
2023/02/06 01:18:53;;;;;;;26.53;5.13;;;1.90;99.90;;;;;;5029473;28;20773;-65
2023/02/06 01:21:24;;;;;;;36.43;5.43;;;1.90;99.90;;;;;;5033285;28;20209;-65
2023/02/06 01:23:54;;;;;;;43.20;6.03;;;1.90;99.90;;;;;;5030253;28;20852;-65
2023/02/06 01:26:25;;;;;;;46.27;5.80;;;1.90;99.90;;;;;;5040744;28;20267;-65
2023/02/06 01:28:55;;;;;;;34.83;6.10;;;2.00;99.90;;;;;;5030731;28;20204;-65
2023/02/06 01:31:25;;;;;;;31.27;6.03;;;2.00;99.90;;;;;;5034014;28;20247;-65
2023/02/06 01:33:54;;;;;;;37.30;5.60;;;2.10;99.90;;;;;;5033889;28;20262;-65
2023/02/06 01:36:24;;;;;;;46.17;6.17;;;2.10;99.90;;;;;;5030221;28;20236;-65
2023/02/06 01:38:53;;;;;;;30.63;5.40;;;2.10;99.90;;;;;;5040509;28;20221;-65
2023/02/06 01:41:22;;;;;;;39.60;6.20;;;2.10;99.90;;;;;;5024238;28;20309;-65
2023/02/06 01:44:10;;;;;;;43.50;5.53;;;2.10;99.90;;;;;;5030310;28;20641;-65
2023/02/06 01:46:40;;;;;;;37.43;5.20;;;2.10;99.90;;;;;;5030530;28;20751;-65
2023/02/06 01:49:10;;;;;;;36.73;6.07;;;2.20;99.90;;;;;;5033853;28;20823;-65
2023/02/06 01:51:40;;;;;;;38.43;5.77;;;2.20;99.90;;;;;;5029539;28;20205;-65
2023/02/06 01:54:10;;;;;;;37.20;6.20;;;2.20;99.90;;;;;;5032183;28;20629;-66
2023/02/06 01:56:42;;;;;;;45.10;6.07;;;2.20;99.90;;;;;;5028162;28;20225;-65
2023/02/06 01:59:12;;;;;;;32.53;6.07;;;2.20;99.90;;;;;;5046302;28;20644;-65
2023/02/06 02:01:41;;;;;;;36.63;6.27;;;2.20;99.90;;;;;;5042487;28;20201;-65
2023/02/06 02:04:14;;;;;;;38.53;5.80;;;2.20;99.90;;;;;;5029912;28;20225;-66
2023/02/06 02:06:47;;;;;;;45.80;7.07;;;2.20;99.90;;;;;;5030163;28;20218;-65
2023/02/06 02:09:17;;;;;;;36.00;5.47;;;2.20;99.90;;;;;;5022759;28;20244;-65
2023/02/06 02:11:46;;;;;;;41.33;5.97;;;2.20;99.90;;;;;;5025407;28;20222;-65
2023/02/06 02:14:16;;;;;;;38.43;6.13;;;2.20;99.90;;;;;;5015386;28;20260;-65
2023/02/06 02:16:53;;;;;;;45.57;6.20;;;2.20;99.90;;;;;;5028139;28;20668;-65
2023/02/06 02:20:03;;;;;;;40.47;5.80;;;2.10;99.90;;;;;;5027656;28;20768;-66
2023/02/06 02:23:02;;;;;;;50.43;5.97;;;2.10;99.90;;;;;;5001585;28;20267;-65
2023/02/06 02:25:59;;;;;;;39.73;5.57;;;2.10;99.90;;;;;;5030733;28;20197;-65
2023/02/06 02:28:44;;;;;;;38.07;6.47;;;2.00;99.90;;;;;;5032218;28;20634;-65
2023/02/06 02:31:50;;;;;;;34.47;5.83;;;2.00;99.90;;;;;;5030616;28;20228;-65
2023/02/06 02:35:00;;;;;;;36.80;6.03;;;2.00;99.90;;;;;;5025170;28;20278;-65
2023/02/06 02:37:34;;;;;;;39.57;5.97;;;2.00;99.90;;;;;;5028836;28;20559;-66
2023/02/06 02:40:12;;;;;;;30.20;5.93;;;2.00;99.90;;;;;;5041061;28;20242;-65
2023/02/06 02:42:48;;;;;;;38.60;6.60;;;2.00;99.90;;;;;;5031136;28;20221;-65
2023/02/06 02:45:21;;;;;;;34.97;5.70;;;2.10;99.90;;;;;;5044120;28;20212;-65
2023/02/06 02:47:55;;;;;;;32.57;5.63;;;2.10;99.90;;;;;;5035612;28;20321;-66
2023/02/06 02:50:26;;;;;;;32.23;5.73;;;2.10;99.90;;;;;;5041280;28;20288;-65
2023/02/06 02:52:54;;;;;;;39.50;6.27;;;2.10;99.90;;;;;;5016842;28;20215;-65
2023/02/06 02:55:23;;;;;;;30.13;5.10;;;2.10;99.90;;;;;;5022893;28;20236;-65
2023/02/06 02:58:04;;;;;;;22.00;5.57;;;2.10;99.90;;;;;;5034865;28;20212;-65
2023/02/06 03:00:37;;;;;;;30.53;5.70;;;2.10;99.90;;;;;;5035643;28;20229;-65
2023/02/06 03:03:09;;;;;;;26.03;5.53;;;2.10;99.90;;;;;;5035495;28;20197;-65
2023/02/06 03:05:46;;;;;;;30.83;5.40;;;2.20;99.90;;;;;;5032301;28;20210;-66
2023/02/06 03:08:22;;;;;;;35.07;6.70;;;2.20;99.90;;;;;;5038913;28;20529;-65
2023/02/06 03:11:03;;;;;;;37.27;6.33;;;2.10;99.90;;;;;;5036255;28;20263;-65
2023/02/06 03:13:36;;;;;;;42.33;6.40;;;2.20;99.90;;;;;;5025935;28;20248;-66
2023/02/06 03:16:11;;;;;;;33.03;6.17;;;2.20;99.90;;;;;;5031090;28;22046;-66
2023/02/06 03:18:43;;;;;;;44.20;6.60;;;2.20;99.90;;;;;;5025744;28;20201;-66
2023/02/06 03:21:17;;;;;;;28.00;6.63;;;2.20;99.90;;;;;;5029743;28;20259;-66
2023/02/06 03:23:49;;;;;;;30.30;5.97;;;2.10;99.90;;;;;;5022960;28;20292;-65
2023/02/06 03:26:22;;;;;;;23.90;5.43;;;2.00;99.90;;;;;;5016107;28;20263;-65
2023/02/06 03:28:55;;;;;;;37.73;5.93;;;1.90;99.90;;;;;;5025577;28;20249;-66
2023/02/06 03:31:28;;;;;;;46.40;6.37;;;1.80;99.90;;;;;;5026085;28;20225;-65
2023/02/06 03:34:02;;;;;;;38.77;5.87;;;1.70;99.90;;;;;;5027676;28;20674;-66
2023/02/06 03:36:32;;;;;;;37.77;5.80;;;1.60;99.90;;;;;;5016588;28;20777;-65
2023/02/06 03:39:01;;;;;;;39.00;6.30;;;1.60;99.90;;;;;;5028958;28;20624;-66
2023/02/06 03:41:31;;;;;;;30.50;5.60;;;1.50;99.90;;;;;;5027491;28;20788;-65
2023/02/06 03:44:02;;;;;;;50.67;6.77;;;1.50;99.90;;;;;;5042396;28;20236;-65
2023/02/06 03:46:34;;;;;;;35.10;6.27;;;1.50;99.90;;;;;;5043528;28;20636;-65
2023/02/06 03:49:07;;;;;;;27.07;5.80;;;1.40;99.90;;;;;;5030582;28;20213;-65
2023/02/06 03:51:41;;;;;;;40.50;6.17;;;1.40;99.90;;;;;;5031240;28;20280;-65
2023/02/06 03:54:13;;;;;;;36.10;5.90;;;1.40;99.90;;;;;;5026468;28;20287;-65
2023/02/06 03:56:47;;;;;;;46.67;6.60;;;1.30;99.90;;;;;;5023945;28;20891;-66
2023/02/06 03:59:16;;;;;;;30.57;6.20;;;1.30;99.90;;;;;;5020828;28;20693;-65
2023/02/06 04:01:49;;;;;;;37.03;5.93;;;1.20;99.90;;;;;;5029344;28;20303;-66
2023/02/06 04:04:20;;;;;;;26.13;5.80;;;1.20;99.90;;;;;;5027206;28;20282;-65
2023/02/06 04:06:50;;;;;;;33.03;6.17;;;1.20;99.90;;;;;;5027043;28;20224;-65
2023/02/06 04:09:18;;;;;;;32.93;6.13;;;1.10;99.90;;;;;;5033447;28;20259;-66
2023/02/06 04:11:49;;;;;;;53.03;6.80;;;1.10;99.90;;;;;;5044086;28;20291;-65
2023/02/06 04:14:18;;;;;;;30.40;6.00;;;1.10;99.90;;;;;;5026862;28;20205;-65
2023/02/06 04:16:47;;;;;;;31.90;6.17;;;1.00;99.90;;;;;;5028033;28;20223;-65
2023/02/06 04:19:15;;;;;;;31.37;5.80;;;1.00;99.90;;;;;;5025288;28;20272;-65
2023/02/06 04:21:44;;;;;;;36.57;6.30;;;0.90;99.90;;;;;;5029425;28;20562;-65
2023/02/06 04:24:13;;;;;;;45.57;6.67;;;0.80;99.90;;;;;;5028520;28;20592;-65
2023/02/06 04:26:42;;;;;;;30.33;6.90;;;0.80;99.90;;;;;;5031928;28;20213;-65
2023/02/06 04:29:11;;;;;;;26.93;6.97;;;0.80;99.90;;;;;;5030960;28;20217;-65
2023/02/06 04:31:40;;;;;;;43.83;7.10;;;0.80;99.90;;;;;;5027223;28;20213;-65
2023/02/06 04:34:08;;;;;;;48.10;9.23;;;0.80;99.90;;;;;;5031072;28;20196;-65
2023/02/06 04:36:37;;;;;;;38.37;7.63;;;0.70;99.90;;;;;;5023867;28;20205;-65
2023/02/06 04:39:06;;;;;;;41.47;6.80;;;0.70;99.90;;;;;;5029934;28;20660;-65
2023/02/06 04:41:36;;;;;;;38.17;7.10;;;0.70;99.90;;;;;;5029914;28;20248;-65
2023/02/06 04:44:05;;;;;;;48.17;7.47;;;0.60;99.90;;;;;;5029527;28;20213;-65
2023/02/06 04:46:33;;;;;;;43.73;7.60;;;0.60;99.90;;;;;;5027427;28;20193;-65
2023/02/06 04:49:01;;;;;;;52.80;7.20;;;0.60;99.90;;;;;;5027235;28;20321;-65
2023/02/06 04:51:29;;;;;;;57.60;8.33;;;0.60;99.90;;;;;;5022374;28;20694;-65
2023/02/06 04:53:58;;;;;;;42.07;7.77;;;0.60;99.90;;;;;;5015654;28;20575;-65
2023/02/06 04:56:26;;;;;;;38.17;7.77;;;0.60;99.90;;;;;;5022195;28;20648;-65
2023/02/06 04:58:56;;;;;;;45.33;7.97;;;0.60;99.90;;;;;;5027989;28;20643;-65
2023/02/06 05:01:24;;;;;;;45.03;7.27;;;0.50;99.90;;;;;;5031600;28;20662;-65
2023/02/06 05:03:52;;;;;;;56.20;7.80;;;0.50;99.90;;;;;;5031135;28;20279;-65
2023/02/06 05:06:21;;;;;;;39.23;8.13;;;0.50;99.90;;;;;;5033276;28;20224;-65
2023/02/06 05:08:49;;;;;;;35.80;7.83;;;0.60;99.90;;;;;;5033205;28;20268;-65
2023/02/06 05:11:17;;;;;;;34.67;7.90;;;0.50;99.90;;;;;;5031165;28;20299;-65
2023/02/06 05:13:46;;;;;;;31.00;7.50;;;0.50;99.90;;;;;;5031621;28;20287;-65
2023/02/06 05:16:17;;;;;;;51.23;8.17;;;0.50;99.90;;;;;;5031507;28;20206;-65
2023/02/06 05:18:46;;;;;;;45.73;8.87;;;0.50;99.90;;;;;;5032567;28;20237;-65
2023/02/06 05:21:15;;;;;;;54.83;8.93;;;0.50;99.90;;;;;;5041628;28;20620;-65
2023/02/06 05:23:43;;;;;;;48.40;8.43;;;0.60;99.90;;;;;;5036776;28;20205;-65
2023/02/06 05:26:11;;;;;;;42.73;8.10;;;0.70;99.90;;;;;;5019530;28;20225;-65
2023/02/06 05:28:39;;;;;;;37.83;8.63;;;0.70;99.90;;;;;;5034155;28;20328;-65
2023/02/06 05:31:07;;;;;;;51.43;8.30;;;0.60;99.90;;;;;;5021592;28;20205;-65
2023/02/06 05:33:37;;;;;;;54.83;8.57;;;0.50;99.90;;;;;;5031658;28;20201;-65
2023/02/06 05:36:07;;;;;;;37.80;8.33;;;0.40;99.90;;;;;;5026120;28;20221;-65
2023/02/06 05:38:36;;;;;;;41.30;8.73;;;0.40;99.90;;;;;;5036621;28;20262;-65
2023/02/06 05:41:04;;;;;;;40.37;8.90;;;0.40;99.90;;;;;;5037539;28;20229;-65
2023/02/06 05:43:32;;;;;;;56.80;9.10;;;0.40;99.90;;;;;;5033146;28;20255;-65
2023/02/06 05:46:01;;;;;;;51.93;8.87;;;0.40;99.90;;;;;;5040266;28;20217;-65
2023/02/06 05:48:29;;;;;;;46.80;9.13;;;0.40;99.90;;;;;;5028782;28;20197;-65
2023/02/06 05:50:59;;;;;;;56.20;9.87;;;0.40;99.90;;;;;;5032377;28;20274;-65
2023/02/06 05:53:27;;;;;;;36.87;8.43;;;0.30;99.90;;;;;;5027618;28;20217;-65
2023/02/06 05:55:56;;;;;;;43.90;9.40;;;0.30;99.90;;;;;;5029479;28;20280;-65
2023/02/06 05:58:24;;;;;;;55.47;11.23;;;0.20;99.90;;;;;;5027754;28;20213;-65
2023/02/06 06:00:52;;;;;;;47.73;12.63;;;0.10;99.90;;;;;;5040540;28;20213;-65
2023/02/06 06:03:21;;;;;;;51.57;11.93;;;0.10;99.90;;;;;;5026568;28;20254;-65
2023/02/06 06:05:49;;;;;;;52.23;13.67;;;0.10;99.90;;;;;;5027463;28;20214;-66
2023/02/06 06:08:19;;;;;;;72.80;15.57;;;0.00;99.90;;;;;;5025060;28;20819;-65
2023/02/06 06:10:50;;;;;;;58.20;15.70;;;0.00;99.90;;;;;;5032671;28;20275;-65
2023/02/06 06:13:18;;;;;;;60.10;17.30;;;0.00;99.90;;;;;;5033766;28;20627;-65
2023/02/06 06:16:27;;;;;;;75.07;21.00;;;0.00;99.90;;;;;;5030871;28;20197;-65
2023/02/06 06:19:15;;;;;;;79.67;18.23;;;-0.10;99.90;;;;;;5023076;28;20212;-65
2023/02/06 06:22:23;;;;;;;57.53;12.80;;;-0.10;99.90;;;;;;5033296;28;20691;-65
2023/02/06 06:25:34;;;;;;;35.43;12.10;;;-0.10;99.90;;;;;;5024076;28;20194;-65
2023/02/06 06:28:43;;;;;;;43.40;12.10;;;-0.10;99.90;;;;;;5031501;28;20231;-65
2023/02/06 06:31:52;;;;;;;41.37;11.87;;;-0.10;99.90;;;;;;5035251;28;20203;-65
2023/02/06 06:35:00;;;;;;;56.73;12.13;;;-0.20;99.90;;;;;;5025778;28;20201;-65
2023/02/06 06:38:08;;;;;;;43.43;12.00;;;-0.20;99.90;;;;;;5031232;28;20220;-65
2023/02/06 06:41:18;;;;;;;42.07;11.20;;;-0.10;99.90;;;;;;5026733;28;20232;-65
2023/02/06 06:44:26;;;;;;;58.80;11.77;;;-0.10;99.90;;;;;;5037226;28;20270;-65
2023/02/06 06:47:35;;;;;;;49.87;11.90;;;-0.10;99.90;;;;;;5019965;28;20198;-65
2023/02/06 06:50:43;;;;;;;44.83;11.67;;;-0.20;99.90;;;;;;5026455;28;20241;-65
2023/02/06 06:53:51;;;;;;;47.57;13.20;;;-0.10;99.90;;;;;;5024781;28;20193;-65
2023/02/06 06:57:01;;;;;;;65.03;14.63;;;-0.10;99.90;;;;;;5030426;28;20683;-65
2023/02/06 07:00:10;;;;;;;67.40;15.47;;;0.10;99.90;;;;;;5022226;28;20267;-65
2023/02/06 07:03:18;;;;;;;57.07;13.93;;;0.40;99.90;;;;;;5023996;28;20604;-65
2023/02/06 07:06:27;;;;;;;61.03;14.20;;;0.40;99.90;;;;;;5030252;28;20280;-65
2023/02/06 07:09:36;;;;;;;70.90;14.57;;;0.40;99.90;;;;;;5018143;28;20222;-65
2023/02/06 07:12:45;;;;;;;51.77;15.60;;;0.30;99.90;;;;;;5026144;28;20240;-65
2023/02/06 07:15:54;;;;;;;62.27;16.83;;;0.20;99.90;;;;;;5031476;28;20283;-65
2023/02/06 07:19:02;;;;;;;58.50;15.57;;;0.20;99.90;;;;;;5031263;28;20263;-65
2023/02/06 07:22:11;;;;;;;52.27;14.43;;;0.10;99.90;;;;;;5023668;28;20634;-65
2023/02/06 07:25:19;;;;;;;49.23;13.83;;;0.10;99.90;;;;;;5027916;28;20192;-65
2023/02/06 07:28:27;;;;;;;55.17;14.30;;;0.10;99.90;;;;;;5043056;28;20201;-65
2023/02/06 07:31:34;;;;;;;162.10;18.50;;;0.10;99.90;;;;;;5020332;28;20224;-65
2023/02/06 07:34:40;;;;;;;77.37;17.07;;;0.20;99.90;;;;;;5040640;28;20272;-65
2023/02/06 07:37:47;;;;;;;57.87;14.70;;;0.20;99.90;;;;;;5024200;28;20236;-65
2023/02/06 07:40:54;;;;;;;72.20;16.07;;;0.30;99.90;;;;;;5032289;28;20554;-65
2023/02/06 07:44:02;;;;;;;66.93;14.97;;;0.30;99.90;;;;;;5043779;28;20216;-65
2023/02/06 07:47:09;;;;;;;85.93;16.77;;;0.30;99.90;;;;;;5021983;28;20572;-65
2023/02/06 07:50:17;;;;;;;56.13;15.30;;;0.40;99.90;;;;;;5030499;28;20217;-65
2023/02/06 07:53:23;;;;;;;61.37;16.10;;;0.50;99.90;;;;;;5026807;28;20225;-65
2023/02/06 07:56:31;;;;;;;63.50;15.47;;;0.60;99.90;;;;;;5033347;28;20192;-65
2023/02/06 07:59:39;;;;;;;63.93;17.47;;;0.70;99.90;;;;;;5035948;28;20202;-65
2023/02/06 08:02:46;;;;;;;75.80;16.80;;;0.80;99.90;;;;;;5021971;28;20218;-65
2023/02/06 08:05:53;;;;;;;104.83;18.40;;;0.90;99.90;;;;;;5021977;28;20201;-65
2023/02/06 08:09:00;;;;;;;82.53;19.07;;;1.00;99.90;;;;;;5022386;28;20234;-65
2023/02/06 08:12:08;;;;;;;88.37;21.27;;;1.10;99.90;;;;;;5013529;28;20199;-65
2023/02/06 08:15:18;;;;;;;114.37;22.70;;;1.20;99.90;;;;;;5025712;28;20731;-65
2023/02/06 08:18:26;;;;;;;69.07;20.93;;;1.40;99.90;;;;;;5012186;28;20241;-65
2023/02/06 08:21:33;;;;;;;82.03;21.07;;;1.50;99.90;;;;;;5031616;28;20201;-65
2023/02/06 08:24:41;;;;;;;79.63;22.10;;;1.60;99.90;;;;;;5030657;28;20231;-65
2023/02/06 08:27:51;;;;;;;80.77;19.27;;;1.80;99.90;;;;;;5032176;28;20209;-65
2023/02/06 08:30:59;;;;;;;100.53;22.93;;;1.90;99.90;;;;;;5027823;28;20214;-66
2023/02/06 08:34:09;;;;;;;132.20;24.03;;;2.10;99.90;;;;;;5027326;28;20239;-65
2023/02/06 08:37:16;;;;;;;127.20;30.20;;;2.20;99.90;;;;;;5031543;28;20199;-65
2023/02/06 08:40:24;;;;;;;99.87;23.97;;;2.30;99.90;;;;;;5016380;28;20191;-65
2023/02/06 08:43:31;;;;;;;96.53;19.67;;;2.40;99.90;;;;;;5020182;28;20925;-65
2023/02/06 08:46:41;;;;;;;88.23;18.80;;;2.50;99.90;;;;;;5020823;28;20639;-65
2023/02/06 08:49:29;;;;;;;97.13;16.10;;;2.40;99.90;;;;;;5029724;28;20209;-65
2023/02/06 08:52:17;;;;;;;35.70;15.57;;;2.40;99.90;;;;;;5030650;28;20214;-65
2023/02/06 08:55:04;;;;;;;80.50;17.37;;;2.50;99.90;;;;;;5021524;28;20229;-66
2023/02/06 08:57:51;;;;;;;56.90;16.30;;;2.60;99.90;;;;;;5028119;28;20281;-66
2023/02/06 09:00:38;;;;;;;44.00;15.30;;;2.80;99.90;;;;;;5055920;28;20197;-66
2023/02/06 09:03:27;;;;;;;44.00;15.17;;;2.90;99.90;;;;;;5020850;28;20233;-66
2023/02/06 09:06:16;;;;;;;41.70;14.87;;;3.10;99.90;;;;;;5036453;28;20213;-66
2023/02/06 09:09:04;;;;;;;43.13;16.00;;;3.20;99.90;;;;;;5032462;28;20230;-66
2023/02/06 09:11:52;;;;;;;45.10;15.93;;;3.40;99.90;;;;;;5015104;28;20210;-66
2023/02/06 09:14:39;;;;;;;55.83;18.43;;;3.60;99.90;;;;;;5029359;28;20672;-66
2023/02/06 09:17:30;;;;;;;66.10;21.27;;;3.80;99.90;;;;;;5029920;28;20201;-66
2023/02/06 09:20:18;;;;;;;63.67;20.43;;;3.90;99.90;;;;;;5013653;28;20206;-66
2023/02/06 09:23:06;;;;;;;51.60;16.73;;;4.10;99.90;;;;;;5014299;28;20186;-65
2023/02/06 09:25:53;;;;;;;49.43;17.07;;;4.20;99.90;;;;;;5018177;28;20202;-66
2023/02/06 09:28:40;;;;;;;50.40;16.30;;;4.40;99.90;;;;;;5037083;28;20201;-66
2023/02/06 09:31:29;;;;;;;52.10;16.60;;;4.50;99.90;;;;;;5030742;28;20222;-66
2023/02/06 09:34:17;;;;;;;57.07;16.50;;;4.80;99.90;;;;;;5030786;28;20221;-66
2023/02/06 09:37:05;;;;;;;47.93;15.43;;;4.90;99.90;;;;;;5025374;28;20547;-66
2023/02/06 09:39:52;;;;;;;46.77;14.70;;;5.20;99.90;;;;;;5015258;28;20199;-66
2023/02/06 09:42:41;;;;;;;44.97;13.37;;;5.40;99.90;;;;;;5023040;28;20213;-66
2023/02/06 09:45:29;;;;;;;44.17;13.50;;;5.40;99.90;;;;;;5050536;28;20220;-66
2023/02/06 09:48:23;;;;;;;29.13;11.17;;;5.30;99.90;;;;;;5027947;28;20214;-66
2023/02/06 09:51:16;;;;;;;41.47;11.67;;;5.50;99.90;;;;;;5012663;28;20680;-66
2023/02/06 09:54:13;;;;;;;35.20;10.97;;;5.80;99.90;;;;;;5018637;28;20217;-66
2023/02/06 09:57:07;;;;;;;28.83;10.30;;;5.80;99.90;;;;;;5033175;28;20222;-66
2023/02/06 09:59:59;;;;;;;31.03;9.90;;;5.90;99.90;;;;;;5033411;28;20661;-66
2023/02/06 10:03:01;;;;;;;39.10;10.37;;;6.00;99.90;;;;;;5032239;28;20197;-66
2023/02/06 10:05:53;;;;;;;33.27;9.93;;;6.10;99.90;;;;;;5017514;28;20428;-66
2023/02/06 10:08:46;;;;;;;35.50;10.10;;;6.00;99.90;;;;;;5024393;28;20575;-66
2023/02/06 10:11:43;;;;;;;34.90;9.33;;;6.00;99.90;;;;;;5030747;28;20283;-66
2023/02/06 10:14:39;;;;;;;30.23;9.53;;;5.90;99.90;;;;;;5014941;28;20277;-66
2023/02/06 10:17:29;;;;;;;34.93;9.73;;;6.10;99.90;;;;;;5019531;28;20217;-66
2023/02/06 10:20:20;;;;;;;44.23;9.60;;;6.10;99.90;;;;;;5016496;28;20561;-66
2023/02/06 10:23:15;;;;;;;25.87;8.53;;;6.30;99.90;;;;;;5043268;28;20204;-66
2023/02/06 10:26:11;;;;;;;32.00;8.83;;;6.50;99.90;;;;;;5022265;28;20565;-66
2023/02/06 10:29:00;;;;;;;32.20;7.97;;;6.60;99.90;;;;;;5028160;28;20206;-66
2023/02/06 10:31:58;;;;;;;30.33;7.63;;;6.70;99.90;;;;;;5021067;28;20226;-66
2023/02/06 10:35:10;;;;;;;34.50;8.00;;;6.90;99.90;;;;;;5015618;28;20218;-66
2023/02/06 10:38:15;;;;;;;26.43;6.90;;;6.90;99.90;;;;;;5034300;28;20197;-66
2023/02/06 10:41:08;;;;;;;36.20;7.33;;;7.00;99.90;;;;;;5017606;28;20221;-66
2023/02/06 10:44:04;;;;;;;35.07;8.43;;;6.90;99.90;;;;;;5038771;28;20280;-66
2023/02/06 10:46:53;;;;;;;33.97;7.73;;;6.70;99.90;;;;;;5047642;28;20209;-66
2023/02/06 10:49:46;;;;;;;37.00;8.83;;;6.90;99.90;;;;;;5019943;28;20237;-66
2023/02/06 10:52:36;;;;;;;32.07;7.33;;;7.10;99.90;;;;;;5025616;28;20245;-66
2023/02/06 10:55:26;;;;;;;34.23;6.90;;;7.20;99.90;;;;;;5012129;28;20226;-66
2023/02/06 10:58:16;;;;;;;28.10;6.73;;;7.30;99.90;;;;;;5016398;28;20224;-66
2023/02/06 11:01:07;;;;;;;26.00;6.70;;;7.30;99.90;;;;;;5047637;28;20208;-66
2023/02/06 11:04:15;;;;;;;32.13;6.40;;;7.60;99.90;;;;;;5013298;28;20214;-67
2023/02/06 11:07:08;;;;;;;26.27;6.40;;;7.70;99.90;;;;;;5012580;28;20198;-66
2023/02/06 11:09:55;;;;;;;27.10;6.17;;;7.80;99.90;;;;;;5021442;28;20238;-66
2023/02/06 11:12:46;;;;;;;25.67;5.33;;;8.00;99.90;;;;;;5044894;28;20217;-67
2023/02/06 11:15:38;;;;;;;31.40;6.67;;;8.30;99.90;;;;;;5012483;28;20214;-67
2023/02/06 11:18:31;;;;;;;28.83;5.77;;;8.30;99.90;;;;;;5026154;28;20249;-67
2023/02/06 11:21:50;;;;;;;22.23;6.03;;;8.40;99.90;;;;;;5018875;28;20218;-67
2023/02/06 11:24:39;;;;;;;26.57;5.90;;;8.60;99.90;;;;;;5023838;28;20225;-67
2023/02/06 11:27:27;;;;;;;27.13;6.27;;;8.90;99.90;;;;;;5026158;28;20202;-67
2023/02/06 11:30:31;;;;;;;30.50;6.70;;;9.40;99.90;;;;;;5044041;28;20221;-67
2023/02/06 11:33:21;;;;;;;27.23;5.87;;;9.70;99.90;;;;;;5031416;28;20307;-67
2023/02/06 11:36:23;;;;;;;38.47;6.03;;;10.20;99.90;;;;;;5029237;28;20221;-66
2023/02/06 11:39:23;;;;;;;24.53;6.13;;;10.30;99.90;;;;;;5019781;28;20240;-67
2023/02/06 11:42:20;;;;;;;28.10;6.30;;;10.40;99.90;;;;;;5025839;28;20218;-67
2023/02/06 11:45:24;;;;;;;29.93;7.53;;;10.20;99.90;;;;;;5030228;28;20660;-67
2023/02/06 11:48:32;;;;;;;30.87;7.27;;;10.00;99.90;;;;;;5030141;28;20275;-66
2023/02/06 11:51:21;;;;;;;31.13;8.40;;;9.60;99.90;;;;;;5026986;28;20229;-67
2023/02/06 11:54:20;;;;;;;34.70;8.17;;;9.20;99.90;;;;;;5027391;28;20206;-66
2023/02/06 11:57:20;;;;;;;24.67;7.87;;;9.20;99.90;;;;;;5022642;28;20286;-67
2023/02/06 12:00:20;;;;;;;27.47;7.57;;;9.00;99.90;;;;;;5028291;28;20213;-66
2023/02/06 12:03:29;;;;;;;29.03;8.03;;;9.10;99.90;;;;;;5030499;28;20213;-67
2023/02/06 12:06:21;;;;;;;35.73;11.10;;;8.70;99.90;;;;;;5027586;28;20229;-67
2023/02/06 12:09:12;;;;;;;32.70;8.97;;;8.60;99.90;;;;;;5021284;28;20747;-66
2023/02/06 12:12:03;;;;;;;40.77;9.67;;;8.60;99.90;;;;;;5022442;28;20216;-66
2023/02/06 12:14:55;;;;;;;31.77;8.47;;;8.40;99.90;;;;;;5028564;28;20213;-66
2023/02/06 12:17:45;;;;;;;32.13;10.03;;;8.40;99.90;;;;;;5029148;28;20217;-66
2023/02/06 12:20:34;;;;;;;36.37;9.30;;;8.50;99.90;;;;;;5022417;28;20237;-66
2023/02/06 12:23:25;;;;;;;33.93;7.20;;;8.60;99.90;;;;;;5032407;28;20666;-66
2023/02/06 12:26:17;;;;;;;39.37;8.40;;;8.30;99.90;;;;;;5035197;28;20668;-66
2023/02/06 12:29:13;;;;;;;33.13;10.77;;;8.10;99.90;;;;;;5032111;28;20221;-66
2023/02/06 12:32:08;;;;;;;34.90;11.30;;;8.20;99.90;;;;;;5032244;28;20217;-66
2023/02/06 12:34:59;;;;;;;36.90;8.33;;;8.30;99.90;;;;;;5018816;28;20209;-66
2023/02/06 12:37:51;;;;;;;36.53;7.60;;;8.40;99.90;;;;;;5022449;28;20244;-66
2023/02/06 12:40:48;;;;;;;25.47;6.47;;;8.30;99.90;;;;;;5026318;28;20647;-66
2023/02/06 12:43:39;;;;;;;31.00;7.33;;;8.30;99.90;;;;;;5027907;28;20217;-66
2023/02/06 12:46:28;;;;;;;33.30;7.60;;;8.10;99.90;;;;;;5038163;28;20572;-66
2023/02/06 12:49:21;;;;;;;22.83;7.20;;;8.10;99.90;;;;;;5020248;28;20213;-66
2023/02/06 12:52:15;;;;;;;28.73;7.73;;;8.70;99.90;;;;;;5026553;28;20229;-66
2023/02/06 12:55:13;;;;;;;32.37;7.43;;;9.40;99.90;;;;;;5019977;28;20557;-66
2023/02/06 12:58:00;;;;;;;25.73;6.53;;;9.90;99.90;;;;;;5019852;28;20260;-66
2023/02/06 13:01:12;;;;;;;24.17;5.80;;;9.90;99.90;;;;;;5031017;28;20209;-66
2023/02/06 13:04:19;;;;;;;25.83;6.17;;;10.30;99.90;;;;;;5011755;28;20202;-66
2023/02/06 13:07:09;;;;;;;27.73;5.93;;;10.00;99.90;;;;;;5027246;28;20218;-66
2023/02/06 13:10:03;;;;;;;25.80;5.33;;;9.80;99.90;;;;;;5025820;28;20688;-66
2023/02/06 13:12:54;;;;;;;24.90;5.73;;;9.70;99.90;;;;;;5034282;28;20209;-66
2023/02/06 13:15:41;;;;;;;23.37;6.17;;;9.30;99.90;;;;;;5018132;28;20285;-66
2023/02/06 13:18:52;;;;;;;20.77;5.13;;;9.10;99.90;;;;;;5029349;28;20659;-66
2023/02/06 13:21:39;;;;;;;20.50;5.43;;;9.50;99.90;;;;;;5019974;28;20712;-66
2023/02/06 13:24:26;;;;;;;30.23;5.73;;;9.50;99.90;;;;;;5031525;28;20660;-66
2023/02/06 13:27:15;;;;;;;20.43;5.73;;;9.80;99.90;;;;;;5029711;28;20217;-66
2023/02/06 13:30:37;;;;;;;21.27;5.47;;;9.80;99.90;;;;;;5035581;28;20201;-66
2023/02/06 13:33:27;;;;;;;18.33;5.37;;;9.80;99.90;;;;;;5033354;28;20225;-66
2023/02/06 13:36:23;;;;;;;28.73;6.13;;;10.20;99.90;;;;;;5023292;28;20233;-66
2023/02/06 13:39:14;;;;;;;17.30;5.90;;;10.10;99.90;;;;;;5031727;28;20296;-66
2023/02/06 13:42:34;;;;;;;29.83;7.77;;;10.10;99.90;;;;;;5031198;28;20336;-66
2023/02/06 13:45:23;;;;;;;24.93;7.33;;;10.00;99.90;;;;;;5048213;28;20224;-66
2023/02/06 13:48:55;;;;;;;22.03;6.70;;;10.00;99.90;;;;;;5030793;28;20261;-66
2023/02/06 13:51:50;;;;;;;27.87;6.37;;;9.70;99.90;;;;;;5022148;28;20225;-66
2023/02/06 13:55:06;;;;;;;23.73;7.77;;;9.50;99.90;;;;;;5023575;28;20224;-66
2023/02/06 13:58:12;;;;;;;28.40;8.90;;;9.40;99.90;;;;;;5024785;28;20222;-66
2023/02/06 14:01:01;;;;;;;25.30;8.73;;;9.40;99.90;;;;;;5024072;28;20210;-66
2023/02/06 14:03:50;;;;;;;32.10;9.80;;;9.50;99.90;;;;;;5023599;28;20213;-66
2023/02/06 14:06:55;;;;;;;22.13;9.63;;;9.50;99.90;;;;;;5029686;28;20695;-66
2023/02/06 14:09:56;;;;;;;31.73;10.30;;;9.70;99.90;;;;;;5031474;28;20236;-66
2023/02/06 14:13:00;;;;;;;26.10;10.50;;;9.90;99.90;;;;;;5024927;28;20225;-66
2023/02/06 14:15:53;;;;;;;25.63;9.60;;;9.90;99.90;;;;;;5036497;28;20202;-66
2023/02/06 14:18:48;;;;;;;32.87;10.07;;;9.70;99.90;;;;;;5029973;28;20332;-66
2023/02/06 14:21:44;;;;;;;26.03;9.10;;;9.80;99.90;;;;;;5022621;28;20703;-66
2023/02/06 14:24:53;;;;;;;25.07;8.40;;;9.80;99.90;;;;;;5029861;28;20284;-66
2023/02/06 14:27:52;;;;;;;29.30;9.07;;;9.90;99.90;;;;;;5023844;28;20224;-66